createdAt,value
2022-10-26T00:01:12.925Z,61.35
2022-10-26T00:03:41.497Z,61.32
2022-10-26T00:06:14.315Z,61.27
2022-10-26T00:08:42.095Z,61.68
2022-10-26T00:11:10.095Z,61.62
2022-10-26T00:13:38.223Z,61.76
2022-10-26T00:16:11.110Z,61.69
2022-10-26T00:18:38.572Z,61.77
2022-10-26T00:21:07.892Z,61.86
2022-10-26T00:23:35.305Z,61.38
2022-10-26T00:26:03.143Z,61.86
2022-10-26T00:28:31.138Z,61.73
2022-10-26T00:31:02.906Z,61.90
2022-10-26T00:33:30.659Z,62.32
2022-10-26T00:35:58.635Z,61.93
2022-10-26T00:38:26.018Z,61.79
2022-10-26T00:40:53.661Z,61.53
2022-10-26T00:43:21.133Z,61.91
2022-10-26T00:45:50.571Z,62.08
2022-10-26T00:48:25.528Z,61.26
2022-10-26T00:50:54.398Z,61.66
2022-10-26T00:53:21.893Z,61.47
2022-10-26T00:55:51.245Z,61.38
2022-10-26T00:58:20.168Z,61.34
2022-10-26T01:00:48.165Z,61.38
2022-10-26T01:03:15.919Z,61.43
2022-10-26T01:05:45.311Z,61.64
2022-10-26T01:08:13.272Z,61.38
2022-10-26T01:10:41.904Z,61.61
2022-10-26T01:13:09.959Z,61.79
2022-10-26T01:15:44.333Z,61.53
2022-10-26T01:18:20.105Z,61.45
2022-10-26T01:21:21.525Z,61.68
2022-10-26T01:24:03.815Z,62.01
2022-10-26T01:26:54.680Z,61.96
2022-10-26T01:29:31.746Z,62.03
2022-10-26T01:32:06.208Z,61.81
2022-10-26T01:34:48.355Z,61.92
2022-10-26T01:37:22.567Z,61.57
2022-10-26T01:40:27.131Z,61.66
2022-10-26T01:42:55.142Z,62.13
2022-10-26T01:45:22.704Z,61.64
2022-10-26T01:47:50.378Z,61.76
2022-10-26T01:50:18.823Z,61.77
2022-10-26T01:52:50.549Z,61.77
2022-10-26T01:55:38.930Z,61.46
2022-10-26T01:58:37.884Z,61.29
2022-10-26T02:01:28.631Z,61.29
2022-10-26T02:04:07.461Z,61.20
2022-10-26T02:07:26.009Z,61.21
2022-10-26T02:10:28.751Z,61.27
2022-10-26T02:13:01.802Z,61.59
2022-10-26T02:15:41.756Z,61.59
2022-10-26T02:18:27.432Z,62.02
2022-10-26T02:20:59.327Z,61.71
2022-10-26T02:23:27.599Z,61.39
2022-10-26T02:26:00.150Z,61.72
2022-10-26T02:28:34.470Z,61.83
2022-10-26T02:31:03.663Z,61.54
2022-10-26T02:33:35.092Z,61.37
2022-10-26T02:36:05.420Z,61.52
2022-10-26T02:38:33.308Z,61.71
2022-10-26T02:41:01.411Z,61.95
2022-10-26T02:46:08.681Z,61.28
2022-10-26T02:48:36.394Z,61.61
2022-10-26T02:51:10.929Z,61.51
2022-10-26T02:53:41.128Z,61.35
2022-10-26T02:56:13.726Z,61.60
2022-10-26T02:58:45.020Z,61.41
2022-10-26T03:01:13.433Z,61.52
2022-10-26T03:03:41.127Z,61.46
2022-10-26T03:06:08.476Z,61.72
2022-10-26T03:08:35.798Z,61.88
2022-10-26T03:11:03.348Z,61.70
2022-10-26T03:13:30.713Z,61.74
2022-10-26T03:15:58.015Z,61.75
2022-10-26T03:18:25.577Z,61.65
2022-10-26T03:20:52.859Z,61.01
2022-10-26T03:23:20.127Z,61.20
2022-10-26T03:25:47.667Z,61.55
2022-10-26T03:28:14.980Z,61.42
2022-10-26T03:30:42.333Z,61.27
2022-10-26T03:33:09.889Z,61.39
2022-10-26T03:35:37.203Z,61.59
2022-10-26T03:38:04.531Z,62.30
2022-10-26T03:40:32.099Z,62.36
2022-10-26T03:42:59.447Z,62.35
2022-10-26T03:45:26.744Z,61.79
2022-10-26T03:47:54.343Z,61.82
2022-10-26T03:50:23.081Z,62.48
2022-10-26T03:52:50.695Z,62.65
2022-10-26T03:55:19.496Z,63.13
2022-10-26T03:57:46.799Z,63.48
2022-10-26T04:00:16.316Z,63.30
2022-10-26T04:02:48.673Z,63.70
2022-10-26T04:05:16.694Z,64.15
2022-10-26T04:07:44.363Z,64.58
2022-10-26T04:10:11.669Z,64.56
2022-10-26T04:12:39.037Z,64.45
2022-10-26T04:15:07.416Z,64.33
2022-10-26T04:17:35.215Z,64.41
2022-10-26T04:20:02.511Z,64.07
2022-10-26T04:22:30.062Z,64.33
2022-10-26T04:24:57.332Z,64.33
2022-10-26T04:27:24.810Z,64.33
2022-10-26T04:29:52.339Z,64.17
2022-10-26T04:32:19.664Z,64.60
2022-10-26T04:34:46.979Z,64.49
2022-10-26T04:37:14.559Z,64.37
2022-10-26T04:39:41.847Z,64.03
2022-10-26T04:42:09.126Z,64.18
2022-10-26T04:44:36.703Z,64.15
2022-10-26T04:47:04.022Z,64.43
2022-10-26T04:49:31.300Z,64.70
2022-10-26T04:51:58.874Z,64.53
2022-10-26T04:54:26.148Z,64.85
2022-10-26T04:56:53.431Z,64.59
2022-10-26T04:59:21.000Z,64.76
2022-10-26T05:01:48.385Z,63.96
2022-10-26T05:04:15.764Z,63.60
2022-10-26T05:06:43.365Z,62.84
2022-10-26T05:09:10.752Z,62.97
2022-10-26T05:11:38.102Z,62.49
2022-10-26T05:14:05.651Z,62.32
2022-10-26T05:16:32.931Z,62.55
2022-10-26T05:19:00.299Z,62.61
2022-10-26T05:21:27.853Z,62.21
2022-10-26T05:23:55.548Z,62.52
2022-10-26T05:26:23.878Z,62.31
2022-10-26T05:28:51.777Z,62.27
2022-10-26T05:31:19.708Z,62.29
2022-10-26T05:33:50.802Z,62.48
2022-10-26T05:36:18.837Z,62.75
2022-10-26T05:38:46.658Z,61.82
2022-10-26T05:41:14.067Z,62.06
2022-10-26T05:43:41.721Z,62.74
2022-10-26T05:46:09.017Z,63.05
2022-10-26T05:48:36.315Z,63.09
2022-10-26T05:51:03.991Z,62.98
2022-10-26T05:53:31.295Z,62.49
2022-10-26T05:55:58.824Z,62.74
2022-10-26T05:58:26.711Z,62.40
2022-10-26T06:01:11.388Z,62.06
2022-10-26T06:03:55.945Z,62.48
2022-10-26T06:06:23.432Z,62.09
2022-10-26T06:08:51.186Z,62.11
2022-10-26T06:11:18.724Z,61.84
2022-10-26T06:13:46.196Z,61.21
2022-10-26T06:16:32.250Z,60.89
2022-10-26T06:19:34.591Z,60.65
2022-10-26T06:22:24.345Z,60.51
2022-10-26T06:25:12.625Z,60.87
2022-10-26T06:27:49.579Z,61.03
2022-10-26T06:30:17.138Z,60.33
2022-10-26T06:32:46.000Z,60.37
2022-10-26T06:35:30.802Z,60.28
2022-10-26T06:38:02.443Z,59.95
2022-10-26T06:40:31.452Z,60.27
2022-10-26T06:43:00.177Z,59.80
2022-10-26T06:45:27.695Z,59.84
2022-10-26T06:47:59.381Z,59.59
2022-10-26T06:50:41.029Z,59.12
2022-10-26T06:53:32.359Z,59.23
2022-10-26T06:56:00.800Z,59.61
2022-10-26T06:58:30.602Z,60.07
2022-10-26T07:00:58.085Z,59.87
2022-10-26T07:03:25.759Z,59.70
2022-10-26T07:05:53.088Z,59.89
2022-10-26T07:08:20.390Z,59.26
2022-10-26T07:10:47.980Z,59.48
2022-10-26T07:13:15.299Z,59.54
2022-10-26T07:15:43.365Z,59.71
2022-10-26T07:18:10.978Z,59.49
2022-10-26T07:20:39.571Z,59.13
2022-10-26T07:23:08.147Z,58.97
2022-10-26T07:25:38.873Z,58.95
2022-10-26T07:28:10.061Z,58.29
2022-10-26T07:30:39.384Z,58.21
2022-10-26T07:33:11.459Z,58.52
2022-10-26T07:35:39.020Z,58.62
2022-10-26T07:38:06.690Z,57.83
2022-10-26T07:40:34.354Z,58.12
2022-10-26T07:43:01.960Z,58.38
2022-10-26T07:45:29.737Z,57.99
2022-10-26T07:47:57.524Z,57.59
2022-10-26T07:50:25.408Z,57.45
2022-10-26T07:52:52.969Z,57.58
2022-10-26T07:55:20.524Z,57.70
2022-10-26T07:57:51.018Z,58.21
2022-10-26T08:00:22.094Z,58.10
2022-10-26T08:02:49.758Z,58.74
2022-10-26T08:05:17.401Z,58.53
2022-10-26T08:07:45.888Z,58.07
2022-10-26T08:10:14.423Z,57.79
2022-10-26T08:12:44.741Z,57.54
2022-10-26T08:15:12.266Z,57.59
2022-10-26T08:17:39.813Z,57.00
2022-10-26T08:20:07.523Z,57.06
2022-10-26T08:22:34.836Z,56.87
2022-10-26T08:25:02.616Z,56.64
2022-10-26T08:27:29.926Z,56.25
2022-10-26T08:29:57.248Z,56.77
2022-10-26T08:32:24.842Z,56.89
2022-10-26T08:35:10.082Z,57.11
2022-10-26T08:37:37.624Z,56.75
2022-10-26T08:40:05.299Z,56.34
2022-10-26T08:42:44.545Z,55.77
2022-10-26T08:45:31.770Z,56.07
2022-10-26T08:48:06.686Z,56.62
2022-10-26T08:50:42.958Z,56.39
2022-10-26T08:53:37.419Z,56.84
2022-10-26T08:56:16.069Z,57.74
2022-10-26T08:58:50.066Z,57.92
2022-10-26T09:01:18.271Z,57.96
2022-10-26T09:03:45.641Z,58.35
2022-10-26T09:06:43.109Z,59.24
2022-10-26T09:09:39.539Z,59.01
2022-10-26T09:12:15.188Z,58.46
2022-10-26T09:15:12.256Z,58.74
2022-10-26T09:17:45.693Z,58.71
2022-10-26T09:20:49.571Z,58.86
2022-10-26T09:23:42.917Z,57.82
2022-10-26T09:26:15.481Z,57.82
2022-10-26T09:28:44.990Z,58.86
2022-10-26T09:31:15.608Z,60.04
2022-10-26T09:33:42.917Z,59.72
2022-10-26T09:36:16.813Z,58.90
2022-10-26T09:38:49.348Z,58.78
2022-10-26T09:41:47.677Z,57.91
2022-10-26T09:44:19.844Z,57.70
2022-10-26T09:46:58.623Z,57.34
2022-10-26T09:49:37.595Z,57.04
2022-10-26T09:52:04.965Z,56.98
2022-10-26T09:54:32.536Z,58.03
2022-10-26T09:57:02.093Z,57.92
2022-10-26T09:59:30.401Z,57.02
2022-10-26T10:01:58.082Z,57.06
2022-10-26T10:04:28.544Z,57.20
2022-10-26T10:07:01.461Z,57.54
2022-10-26T10:09:29.090Z,58.12
2022-10-26T10:12:03.764Z,58.24
2022-10-26T10:14:36.168Z,58.02
2022-10-26T10:17:10.848Z,57.96
2022-10-26T10:19:38.708Z,58.21
2022-10-26T10:22:19.654Z,58.13
2022-10-26T10:24:58.244Z,57.52
2022-10-26T10:27:26.475Z,57.64
2022-10-26T10:29:59.821Z,57.42
2022-10-26T10:32:35.407Z,57.83
2022-10-26T10:35:24.662Z,58.07
2022-10-26T10:37:52.340Z,57.79
2022-10-26T10:40:23.035Z,57.70
2022-10-26T10:42:52.313Z,57.88
2022-10-26T10:45:25.135Z,57.48
2022-10-26T10:48:12.083Z,57.11
2022-10-26T10:50:50.531Z,57.55
2022-10-26T10:53:26.417Z,57.11
2022-10-26T10:56:20.623Z,56.91
2022-10-26T10:59:25.752Z,56.80
2022-10-26T11:02:19.711Z,57.38
2022-10-26T11:05:14.032Z,57.58
2022-10-26T11:07:49.837Z,57.73
2022-10-26T11:10:17.868Z,58.52
2022-10-26T11:12:50.668Z,57.80
2022-10-26T11:15:21.221Z,57.71
2022-10-26T11:18:14.324Z,57.85
2022-10-26T11:20:47.467Z,58.53
2022-10-26T11:23:48.964Z,58.25
2022-10-26T11:26:22.270Z,57.39
2022-10-26T11:28:59.128Z,57.22
2022-10-26T11:31:31.757Z,57.08
2022-10-26T11:34:17.977Z,57.89
2022-10-26T11:36:49.381Z,57.59
2022-10-26T11:39:42.986Z,57.22
2022-10-26T11:42:27.511Z,58.07
2022-10-26T11:45:02.196Z,58.00
2022-10-26T11:47:38.835Z,57.76
2022-10-26T11:50:17.871Z,57.65
2022-10-26T11:52:50.378Z,57.22
2022-10-26T11:55:18.735Z,57.51
2022-10-26T11:57:47.097Z,57.79
2022-10-26T12:00:17.206Z,57.47
2022-10-26T12:02:51.120Z,57.02
2022-10-26T12:05:35.202Z,57.02
2022-10-26T12:08:11.718Z,56.36
2022-10-26T12:10:41.841Z,56.28
2022-10-26T12:13:24.946Z,56.36
2022-10-26T12:16:04.053Z,56.15
2022-10-26T12:18:57.115Z,56.29
2022-10-26T12:21:28.026Z,55.39
2022-10-26T12:24:02.214Z,55.94
2022-10-26T12:26:29.363Z,56.41
2022-10-26T12:29:03.043Z,56.52
2022-10-26T12:31:36.742Z,56.67
2022-10-26T12:34:15.359Z,56.58
2022-10-26T12:36:54.948Z,56.13
2022-10-26T12:39:40.500Z,56.55
2022-10-26T12:42:28.947Z,56.90
2022-10-26T12:44:59.467Z,57.12
2022-10-26T12:47:32.584Z,56.88
2022-10-26T12:50:06.094Z,56.73
2022-10-26T12:52:54.875Z,56.46
2022-10-26T12:55:34.626Z,56.17
2022-10-26T12:58:26.525Z,57.16
2022-10-26T13:01:00.005Z,57.44
2022-10-26T13:03:47.454Z,56.68
2022-10-26T13:06:34.332Z,57.76
2022-10-26T13:11:46.978Z,57.11
2022-10-26T13:14:23.611Z,57.59
2022-10-26T13:16:51.276Z,57.35
2022-10-26T13:19:31.383Z,56.64
2022-10-26T13:21:59.787Z,56.55
2022-10-26T13:24:29.655Z,56.79
2022-10-26T13:27:05.703Z,56.67
2022-10-26T13:29:54.670Z,56.88
2022-10-26T13:32:22.197Z,57.17
2022-10-26T13:34:49.803Z,56.99
2022-10-26T13:37:21.964Z,56.74
2022-10-26T13:39:50.535Z,57.16
2022-10-26T13:42:22.285Z,57.41
2022-10-26T13:45:11.747Z,57.52
2022-10-26T13:47:45.982Z,57.79
2022-10-26T13:50:27.548Z,57.65
2022-10-26T13:53:00.958Z,57.62
2022-10-26T13:55:36.503Z,57.75
2022-10-26T13:58:20.736Z,57.96
2022-10-26T14:01:00.508Z,58.13
2022-10-26T14:03:28.567Z,58.23
2022-10-26T14:05:56.339Z,57.35
2022-10-26T14:08:23.699Z,57.61
2022-10-26T14:10:56.639Z,57.83
2022-10-26T14:13:26.359Z,58.04
2022-10-26T14:15:58.125Z,58.21
2022-10-26T14:18:30.431Z,58.42
2022-10-26T14:21:03.468Z,58.21
2022-10-26T14:23:36.549Z,58.74
2022-10-26T14:26:04.688Z,58.96
2022-10-26T14:28:33.328Z,59.03
2022-10-26T14:31:17.941Z,58.83
2022-10-26T14:33:47.840Z,59.09
2022-10-26T14:36:16.086Z,58.57
2022-10-26T14:38:45.270Z,58.87
2022-10-26T14:41:15.843Z,58.89
2022-10-26T14:43:44.280Z,58.68
2022-10-26T14:46:15.319Z,58.92
2022-10-26T14:48:52.698Z,59.15
2022-10-26T14:51:22.333Z,59.25
2022-10-26T14:53:51.693Z,59.05
2022-10-26T14:56:35.262Z,59.00
2022-10-26T14:59:24.827Z,59.21
2022-10-26T15:02:10.307Z,59.15
2022-10-26T15:04:40.044Z,59.29
2022-10-26T15:07:13.433Z,59.17
2022-10-26T15:09:52.072Z,59.39
2022-10-26T15:12:27.371Z,59.69
2022-10-26T15:14:55.520Z,59.56
2022-10-26T15:17:27.480Z,59.76
2022-10-26T15:19:55.183Z,60.06
2022-10-26T15:22:28.363Z,60.07
2022-10-26T15:25:03.087Z,60.34
2022-10-26T15:27:30.702Z,60.15
2022-10-26T15:30:27.246Z,60.52
2022-10-26T15:32:55.673Z,60.78
2022-10-26T15:35:26.650Z,60.82
2022-10-26T15:37:55.452Z,60.49
2022-10-26T15:42:59.089Z,61.09
2022-10-26T15:45:32.897Z,61.15
2022-10-26T15:48:16.790Z,61.12
2022-10-26T15:50:44.355Z,61.45
2022-10-26T15:53:18.252Z,61.51
2022-10-26T15:55:46.171Z,61.65
2022-10-26T15:58:13.625Z,61.65
2022-10-26T16:00:40.932Z,61.67
2022-10-26T16:03:16.698Z,61.63
2022-10-26T16:05:44.305Z,61.33
2022-10-26T16:08:17.117Z,61.76
2022-10-26T16:10:45.668Z,61.89
2022-10-26T16:13:14.123Z,61.77
2022-10-26T16:15:41.897Z,61.92
2022-10-26T16:18:09.217Z,61.55
2022-10-26T16:20:37.208Z,62.20
2022-10-26T16:23:07.242Z,61.90
2022-10-26T16:25:40.706Z,62.22
2022-10-26T16:28:09.833Z,61.78
2022-10-26T16:30:37.163Z,62.09
2022-10-26T16:33:04.511Z,62.56
2022-10-26T16:35:32.088Z,62.67
2022-10-26T16:37:59.382Z,62.51
2022-10-26T16:40:26.708Z,62.60
2022-10-26T16:42:54.300Z,62.65
2022-10-26T16:45:21.646Z,63.03
2022-10-26T16:47:49.395Z,62.74
2022-10-26T16:50:20.437Z,62.57
2022-10-26T16:52:47.751Z,63.00
2022-10-26T16:55:15.546Z,63.01
2022-10-26T16:57:43.098Z,62.67
2022-10-26T17:00:10.656Z,63.00
2022-10-26T17:02:38.069Z,62.70
2022-10-26T17:05:07.379Z,63.01
2022-10-26T17:07:35.275Z,62.76
2022-10-26T17:10:02.675Z,62.90
2022-10-26T17:12:30.464Z,62.80
2022-10-26T17:14:58.887Z,63.28
2022-10-26T17:17:26.523Z,63.09
2022-10-26T17:19:54.118Z,62.97
2022-10-26T17:22:21.689Z,62.94
2022-10-26T17:24:48.979Z,63.05
2022-10-26T17:27:17.389Z,63.04
2022-10-26T17:29:44.770Z,63.33
2022-10-26T17:32:14.235Z,63.03
2022-10-26T17:34:42.216Z,63.15
2022-10-26T17:37:09.714Z,63.32
2022-10-26T17:39:37.112Z,63.58
2022-10-26T17:42:04.680Z,63.14
2022-10-26T17:44:33.714Z,63.33
2022-10-26T17:47:01.061Z,63.34
2022-10-26T17:49:30.249Z,63.27
2022-10-26T17:52:00.742Z,63.56
2022-10-26T17:54:27.936Z,63.73
2022-10-26T17:56:55.529Z,63.31
2022-10-26T17:59:22.837Z,64.06
2022-10-26T18:01:52.372Z,64.36
2022-10-26T18:04:22.390Z,63.92
2022-10-26T18:06:50.574Z,63.60
2022-10-26T18:09:17.915Z,63.46
2022-10-26T18:11:45.468Z,63.28
2022-10-26T18:14:13.819Z,63.35
2022-10-26T18:16:41.137Z,63.11
2022-10-26T18:19:09.664Z,62.84
2022-10-26T18:21:39.828Z,62.95
2022-10-26T18:24:07.630Z,62.65
2022-10-26T18:26:35.719Z,62.74
2022-10-26T18:29:03.800Z,62.69
2022-10-26T18:31:32.118Z,62.64
2022-10-26T18:34:01.270Z,62.19
2022-10-26T18:36:29.299Z,62.20
2022-10-26T18:38:57.166Z,63.20
2022-10-26T18:41:25.476Z,63.89
2022-10-26T18:43:55.413Z,62.52
2022-10-26T18:46:25.411Z,62.19
2022-10-26T18:48:56.901Z,62.18
2022-10-26T18:51:28.608Z,62.09
2022-10-26T18:53:57.372Z,61.81
2022-10-26T18:56:25.581Z,61.90
2022-10-26T18:58:56.144Z,61.82
2022-10-26T19:01:25.784Z,62.06
2022-10-26T19:04:11.227Z,61.87
2022-10-26T19:06:41.054Z,61.98
2022-10-26T19:09:10.157Z,61.62
2022-10-26T19:11:38.100Z,61.90
2022-10-26T19:14:07.424Z,62.00
2022-10-26T19:16:50.587Z,61.91
2022-10-26T19:19:19.748Z,61.88
2022-10-26T19:21:48.385Z,61.76
2022-10-26T19:24:17.994Z,62.06
2022-10-26T19:26:46.376Z,62.17
2022-10-26T19:29:15.847Z,62.59
2022-10-26T19:31:47.573Z,62.38
2022-10-26T19:34:18.178Z,62.29
2022-10-26T19:36:46.759Z,62.36
2022-10-26T19:39:15.734Z,62.60
2022-10-26T19:41:44.087Z,62.90
2022-10-26T19:44:12.253Z,62.98
2022-10-26T19:46:39.976Z,63.11
2022-10-26T19:49:07.792Z,63.14
2022-10-26T19:51:35.116Z,62.86
2022-10-26T19:54:04.388Z,63.03
2022-10-26T19:56:32.962Z,62.94
2022-10-26T19:59:00.985Z,62.74
2022-10-26T20:01:28.665Z,62.56
2022-10-26T20:03:57.160Z,62.29
2022-10-26T20:06:24.710Z,62.42
2022-10-26T20:08:52.052Z,63.13
2022-10-26T20:11:20.016Z,63.27
2022-10-26T20:13:47.834Z,63.43
2022-10-26T20:16:16.690Z,63.54
2022-10-26T20:18:48.002Z,63.48
2022-10-26T20:21:16.896Z,63.84
2022-10-26T20:23:44.775Z,63.92
2022-10-26T20:26:18.445Z,63.91
2022-10-26T20:28:49.146Z,63.87
2022-10-26T20:31:16.562Z,63.66
2022-10-26T20:33:43.905Z,63.84
2022-10-26T20:36:11.576Z,63.97
2022-10-26T20:38:39.737Z,63.03
2022-10-26T20:41:10.379Z,63.30
2022-10-26T20:43:39.464Z,63.48
2022-10-26T20:46:09.985Z,63.13
2022-10-26T20:48:38.626Z,62.84
2022-10-26T20:51:07.422Z,62.92
2022-10-26T20:53:36.163Z,62.75
2022-10-26T20:56:06.768Z,63.18
2022-10-26T20:58:56.411Z,62.76
2022-10-26T21:01:28.052Z,62.81
2022-10-26T21:03:57.129Z,63.12
2022-10-26T21:06:25.647Z,63.14
2022-10-26T21:08:54.321Z,63.25
2022-10-26T21:11:23.448Z,63.36
2022-10-26T21:13:53.102Z,63.24
2022-10-26T21:18:52.947Z,63.51
2022-10-26T21:21:20.503Z,63.54
2022-10-26T21:23:48.033Z,63.58
2022-10-26T21:26:15.596Z,63.67
2022-10-26T21:28:47.163Z,63.63
2022-10-26T21:31:17.771Z,63.49
2022-10-26T21:33:46.249Z,63.71
2022-10-26T21:36:14.853Z,63.42
2022-10-26T21:38:44.352Z,63.73
2022-10-26T21:41:16.865Z,63.66
2022-10-26T21:43:46.047Z,63.43
2022-10-26T21:46:14.021Z,63.54
2022-10-26T21:48:41.646Z,63.43
2022-10-26T21:51:12.849Z,63.62
2022-10-26T21:53:40.685Z,63.77
2022-10-26T21:56:11.705Z,63.52
2022-10-26T21:58:39.650Z,63.14
2022-10-26T22:01:15.220Z,63.22
2022-10-26T22:03:43.260Z,63.22
2022-10-26T22:06:12.948Z,63.33
2022-10-26T22:08:40.523Z,63.81
2022-10-26T22:11:15.158Z,63.25
2022-10-26T22:13:44.299Z,63.65
2022-10-26T22:16:18.971Z,63.98
2022-10-26T22:18:46.872Z,64.24
2022-10-26T22:21:16.356Z,64.19
2022-10-26T22:23:44.263Z,64.25
2022-10-26T22:26:16.790Z,64.35
2022-10-26T22:28:45.653Z,64.57
2022-10-26T22:31:15.804Z,64.22
2022-10-26T22:33:43.868Z,64.32
2022-10-26T22:36:13.364Z,64.82
2022-10-26T22:38:41.244Z,64.67
2022-10-26T22:41:09.694Z,64.58
2022-10-26T22:43:37.520Z,64.44
2022-10-26T22:46:09.760Z,64.27
2022-10-26T22:48:37.742Z,64.18
2022-10-26T22:51:07.297Z,63.86
2022-10-26T22:53:34.594Z,64.07
2022-10-26T22:56:03.072Z,64.11
2022-10-26T22:58:30.348Z,64.29
2022-10-26T23:01:10.188Z,64.23
2022-10-26T23:03:37.887Z,64.24
2022-10-26T23:06:10.072Z,64.04
2022-10-26T23:08:38.193Z,64.24
2022-10-26T23:11:08.097Z,63.82
2022-10-26T23:13:35.417Z,63.69
2022-10-26T23:16:07.237Z,64.24
2022-10-26T23:18:35.276Z,64.56
2022-10-26T23:21:03.715Z,64.16
2022-10-26T23:23:31.108Z,64.10
2022-10-26T23:26:05.968Z,64.01
2022-10-26T23:28:34.779Z,64.01
2022-10-26T23:31:02.642Z,64.23
2022-10-26T23:33:30.156Z,64.01
2022-10-26T23:35:57.909Z,64.14
2022-10-26T23:38:26.033Z,64.18
2022-10-26T23:40:55.614Z,64.37
2022-10-26T23:43:23.471Z,64.50
2022-10-26T23:45:50.942Z,64.69
2022-10-26T23:48:19.353Z,64.57
2022-10-26T23:50:48.200Z,64.41
2022-10-26T23:53:17.186Z,64.36
2022-10-26T23:55:45.628Z,64.25
2022-10-26T23:58:14.049Z,63.86
